createdAt,value
2018-07-03T00:00:59.300Z,13.72
2018-07-03T00:02:05.693Z,13.52
2018-07-03T00:03:12.081Z,13.48
2018-07-03T00:04:18.498Z,13.55
2018-07-03T00:05:24.887Z,13.53
2018-07-03T00:06:31.295Z,13.55
2018-07-03T00:07:37.686Z,13.52
2018-07-03T00:08:44.074Z,13.47
2018-07-03T00:09:50.489Z,13.35
2018-07-03T00:10:56.883Z,13.42
2018-07-03T00:12:03.276Z,13.71
2018-07-03T00:13:09.672Z,13.88
2018-07-03T00:14:16.073Z,13.82
2018-07-03T00:15:22.477Z,13.80
2018-07-03T00:16:28.880Z,13.66
2018-07-03T00:17:35.280Z,13.46
2018-07-03T00:18:41.682Z,13.34
2018-07-03T00:19:48.076Z,13.28
2018-07-03T00:20:54.478Z,13.35
2018-07-03T00:22:00.886Z,13.31
2018-07-03T00:23:07.285Z,13.14
2018-07-03T00:24:13.689Z,12.97
2018-07-03T00:25:20.077Z,12.79
2018-07-03T00:26:26.485Z,12.67
2018-07-03T00:27:32.888Z,12.65
2018-07-03T00:28:39.291Z,12.57
2018-07-03T00:29:45.687Z,12.64
2018-07-03T00:30:53.095Z,12.74
2018-07-03T00:31:58.501Z,12.89
2018-07-03T00:33:04.888Z,13.03
2018-07-03T00:34:11.284Z,13.14
2018-07-03T00:35:17.693Z,13.30
2018-07-03T00:36:24.096Z,13.53
2018-07-03T00:37:30.486Z,13.84
2018-07-03T00:38:36.868Z,14.13
2018-07-03T00:39:43.268Z,14.33
2018-07-03T00:40:49.656Z,14.47
2018-07-03T00:41:56.061Z,14.53
2018-07-03T00:43:02.439Z,14.60
2018-07-03T00:44:08.906Z,14.69
2018-07-03T00:45:16.223Z,14.74
2018-07-03T00:46:21.615Z,14.68
2018-07-03T00:47:28.021Z,14.62
2018-07-03T00:48:34.400Z,14.58
2018-07-03T00:49:41.289Z,14.58
2018-07-03T00:50:47.187Z,14.58
2018-07-03T00:51:53.567Z,14.38
2018-07-03T00:52:59.965Z,14.06
2018-07-03T00:54:06.360Z,13.75
2018-07-03T00:55:12.745Z,13.46
2018-07-03T00:56:19.130Z,13.22
2018-07-03T00:57:25.539Z,13.03
2018-07-03T00:58:31.927Z,12.85
2018-07-03T00:59:38.322Z,12.68
2018-07-03T01:00:44.709Z,12.58
2018-07-03T01:01:51.114Z,12.49
2018-07-03T01:02:57.520Z,12.54
2018-07-03T01:04:03.916Z,12.55
2018-07-03T01:05:10.318Z,12.55
2018-07-03T01:06:16.719Z,12.60
2018-07-03T01:07:23.128Z,12.54
2018-07-03T01:08:29.531Z,12.44
2018-07-03T01:09:35.922Z,12.32
2018-07-03T01:10:42.334Z,12.20
2018-07-03T01:11:48.730Z,12.09
2018-07-03T01:12:55.152Z,12.00
2018-07-03T01:14:01.548Z,11.95
2018-07-03T01:15:07.951Z,12.22
2018-07-03T01:16:14.345Z,12.80
2018-07-03T01:17:20.758Z,13.33
2018-07-03T01:18:27.157Z,13.65
2018-07-03T01:19:33.548Z,13.91
2018-07-03T01:20:40.951Z,14.11
2018-07-03T01:21:46.349Z,14.30
2018-07-03T01:22:52.747Z,14.33
2018-07-03T01:23:59.435Z,14.39
2018-07-03T01:25:05.518Z,14.43
2018-07-03T01:26:11.920Z,14.38
2018-07-03T01:27:18.310Z,14.25
2018-07-03T01:28:25.192Z,14.13
2018-07-03T01:29:31.094Z,14.17
2018-07-03T01:30:37.481Z,14.16
2018-07-03T01:31:43.855Z,14.09
2018-07-03T01:32:50.257Z,13.87
2018-07-03T01:33:56.650Z,13.66
2018-07-03T01:35:03.031Z,13.49
2018-07-03T01:36:09.423Z,13.24
2018-07-03T01:37:15.810Z,12.98
2018-07-03T01:38:22.213Z,12.76
2018-07-03T01:39:28.595Z,12.56
2018-07-03T01:40:35.007Z,12.37
2018-07-03T01:41:41.386Z,12.27
2018-07-03T01:42:47.826Z,12.19
2018-07-03T01:43:54.201Z,12.02
2018-07-03T01:45:00.596Z,11.86
2018-07-03T01:46:06.993Z,11.76
2018-07-03T01:47:13.392Z,11.62
2018-07-03T01:48:19.788Z,11.47
2018-07-03T01:49:26.190Z,11.33
2018-07-03T01:50:32.583Z,11.20
2018-07-03T01:51:38.986Z,11.17
2018-07-03T01:52:45.384Z,11.13
2018-07-03T01:53:51.783Z,11.08
2018-07-03T01:54:58.179Z,11.02
2018-07-03T01:56:04.574Z,11.03
2018-07-03T01:57:10.968Z,11.00
2018-07-03T01:58:17.372Z,11.00
2018-07-03T01:59:23.769Z,10.98
2018-07-03T02:00:30.164Z,10.94
2018-07-03T02:01:36.564Z,10.90
2018-07-03T02:02:42.951Z,10.91
2018-07-03T02:03:49.354Z,11.00
2018-07-03T02:04:55.752Z,11.10
2018-07-03T02:06:02.146Z,11.17
2018-07-03T02:07:08.537Z,11.09
2018-07-03T02:08:14.935Z,11.02
2018-07-03T02:09:21.344Z,10.96
2018-07-03T02:10:27.737Z,10.85
2018-07-03T02:11:34.130Z,10.72
2018-07-03T02:12:40.522Z,10.59
2018-07-03T02:13:46.936Z,10.48
2018-07-03T02:14:53.327Z,10.41
2018-07-03T02:15:59.713Z,10.34
2018-07-03T02:17:06.107Z,10.29
2018-07-03T02:18:12.493Z,10.21
2018-07-03T02:19:18.910Z,10.14
2018-07-03T02:20:25.284Z,10.12
2018-07-03T02:21:31.666Z,10.18
2018-07-03T02:22:38.074Z,10.12
2018-07-03T02:23:44.437Z,10.09
2018-07-03T02:24:50.912Z,10.14
2018-07-03T02:25:57.212Z,10.09
2018-07-03T02:27:03.597Z,10.00
2018-07-03T02:28:09.973Z,9.96
2018-07-03T02:29:16.368Z,9.92
2018-07-03T02:30:22.759Z,9.89
2018-07-03T02:31:29.144Z,9.85
2018-07-03T02:32:35.523Z,9.81
2018-07-03T02:33:42.216Z,9.77
2018-07-03T02:34:48.300Z,9.75
2018-07-03T02:35:54.678Z,9.73
2018-07-03T02:37:01.068Z,9.68
2018-07-03T02:38:07.446Z,9.66
2018-07-03T02:39:13.866Z,9.66
2018-07-03T02:40:20.222Z,9.67
2018-07-03T02:41:26.594Z,9.70
2018-07-03T02:42:32.973Z,9.64
2018-07-03T02:43:39.351Z,9.58
2018-07-03T02:44:45.730Z,9.53
2018-07-03T02:45:52.113Z,9.48
2018-07-03T02:46:58.491Z,9.41
2018-07-03T02:48:04.865Z,9.38
2018-07-03T02:49:11.250Z,9.35
2018-07-03T02:50:17.633Z,9.32
2018-07-03T02:51:24.000Z,9.32
2018-07-03T02:52:30.365Z,9.28
2018-07-03T02:53:36.751Z,9.23
2018-07-03T02:54:43.125Z,9.16
2018-07-03T02:55:49.498Z,9.27
2018-07-03T02:56:55.871Z,9.34
2018-07-03T02:58:02.243Z,9.32
2018-07-03T02:59:08.692Z,9.26
2018-07-03T03:00:15.001Z,9.20
2018-07-03T03:01:21.370Z,9.16
2018-07-03T03:02:27.752Z,9.13
2018-07-03T03:03:35.127Z,9.08
2018-07-03T03:04:40.506Z,9.04
2018-07-03T03:05:46.870Z,8.96
2018-07-03T03:06:53.239Z,8.89
2018-07-03T03:07:59.626Z,8.87
2018-07-03T03:09:06.009Z,8.87
2018-07-03T03:10:12.368Z,8.92
2018-07-03T03:11:18.741Z,8.94
2018-07-03T03:12:25.117Z,8.91
2018-07-03T03:13:31.459Z,9.00
2018-07-03T03:14:37.830Z,9.05
2018-07-03T03:15:44.205Z,9.06
2018-07-03T03:16:50.568Z,9.04
2018-07-03T03:17:56.936Z,8.99
2018-07-03T03:19:03.300Z,8.98
2018-07-03T03:20:09.672Z,8.98
2018-07-03T03:21:16.035Z,8.90
2018-07-03T03:22:22.457Z,8.81
2018-07-03T03:23:28.763Z,8.85
2018-07-03T03:24:35.130Z,8.84
2018-07-03T03:25:41.492Z,8.81
2018-07-03T03:26:47.872Z,8.77
2018-07-03T03:27:54.227Z,8.73
2018-07-03T03:29:00.596Z,8.70
2018-07-03T03:30:06.964Z,8.66
2018-07-03T03:31:13.329Z,8.62
2018-07-03T03:32:19.709Z,8.58
2018-07-03T03:33:26.064Z,8.56
2018-07-03T03:34:32.427Z,8.55
2018-07-03T03:35:38.883Z,8.55
2018-07-03T03:36:45.178Z,8.57
2018-07-03T03:37:51.552Z,8.61
2018-07-03T03:38:57.908Z,8.60
2018-07-03T03:40:04.291Z,8.59
2018-07-03T03:41:10.662Z,8.59
2018-07-03T03:42:17.031Z,8.60
2018-07-03T03:43:23.399Z,8.61
2018-07-03T03:44:29.765Z,8.64
2018-07-03T03:45:36.142Z,8.64
2018-07-03T03:46:42.512Z,8.60
2018-07-03T03:47:48.878Z,8.58
2018-07-03T03:48:55.546Z,8.53
2018-07-03T03:50:01.619Z,8.54
2018-07-03T03:51:07.985Z,8.62
2018-07-03T03:52:14.359Z,8.67
2018-07-03T03:53:20.732Z,8.64
2018-07-03T03:54:27.095Z,8.60
2018-07-03T03:55:33.461Z,8.54
2018-07-03T03:56:39.849Z,8.53
2018-07-03T03:57:46.209Z,8.56
2018-07-03T03:58:52.577Z,8.57
2018-07-03T03:59:58.941Z,8.61
2018-07-03T04:01:05.315Z,8.67
2018-07-03T04:02:11.721Z,8.71
2018-07-03T04:03:18.046Z,8.72
2018-07-03T04:04:24.423Z,8.75
2018-07-03T04:05:30.885Z,8.78
2018-07-03T04:06:37.160Z,8.81
2018-07-03T04:07:43.547Z,8.84
2018-07-03T04:08:49.924Z,8.88
2018-07-03T04:09:56.294Z,8.94
2018-07-03T04:11:02.663Z,8.97
2018-07-03T04:12:09.036Z,8.99
2018-07-03T04:13:15.423Z,8.94
2018-07-03T04:14:21.802Z,8.93
2018-07-03T04:15:28.167Z,8.91
2018-07-03T04:16:34.549Z,8.92
2018-07-03T04:17:40.920Z,8.96
2018-07-03T04:18:47.312Z,8.96
2018-07-03T04:19:53.687Z,8.98
2018-07-03T04:21:00.067Z,9.00
2018-07-03T04:22:06.445Z,9.06
2018-07-03T04:23:12.905Z,9.14
2018-07-03T04:24:19.193Z,9.20
2018-07-03T04:25:25.584Z,9.29
2018-07-03T04:26:31.968Z,9.39
2018-07-03T04:27:38.350Z,9.56
2018-07-03T04:28:44.743Z,9.65
2018-07-03T04:29:51.122Z,9.77
2018-07-03T04:30:57.510Z,9.80
2018-07-03T04:32:03.894Z,9.85
2018-07-03T04:33:10.287Z,9.84
2018-07-03T04:34:16.675Z,9.79
2018-07-03T04:35:23.061Z,9.76
2018-07-03T04:36:29.458Z,9.75
2018-07-03T04:37:35.875Z,9.86
2018-07-03T04:38:42.241Z,10.02
2018-07-03T04:39:48.632Z,10.21
2018-07-03T04:40:55.024Z,10.20
2018-07-03T04:42:01.427Z,10.27
2018-07-03T04:43:07.822Z,10.35
2018-07-03T04:44:14.227Z,10.48
2018-07-03T04:45:21.620Z,10.71
2018-07-03T04:46:27.021Z,10.93
2018-07-03T04:47:33.418Z,10.87
2018-07-03T04:48:39.818Z,10.76
2018-07-03T04:49:46.222Z,10.66
2018-07-03T04:50:52.623Z,10.57
2018-07-03T04:51:59.027Z,10.52
2018-07-03T04:53:05.427Z,10.53
2018-07-03T04:54:11.911Z,10.57
2018-07-03T04:55:18.225Z,10.63
2018-07-03T04:56:24.643Z,10.80
2018-07-03T04:57:32.047Z,10.86
2018-07-03T04:58:37.473Z,10.86
2018-07-03T04:59:43.859Z,10.86
2018-07-03T05:00:50.267Z,10.83
2018-07-03T05:01:56.693Z,10.85
2018-07-03T05:03:03.104Z,10.88
2018-07-03T05:04:09.522Z,10.94
2018-07-03T05:05:15.929Z,10.97
2018-07-03T05:06:22.340Z,11.17
2018-07-03T05:07:28.760Z,11.23
2018-07-03T05:08:35.167Z,11.26
2018-07-03T05:09:41.595Z,11.27
2018-07-03T05:10:48.009Z,11.28
2018-07-03T05:11:54.418Z,11.31
2018-07-03T05:13:00.846Z,11.37
2018-07-03T05:14:07.260Z,11.44
2018-07-03T05:15:13.688Z,11.56
2018-07-03T05:16:20.109Z,11.64
2018-07-03T05:17:26.561Z,11.74
2018-07-03T05:18:32.957Z,11.80
2018-07-03T05:19:39.403Z,11.86
2018-07-03T05:20:45.854Z,11.94
2018-07-03T05:21:52.238Z,12.00
2018-07-03T05:22:58.679Z,12.08
2018-07-03T05:24:05.107Z,12.20
2018-07-03T05:25:11.543Z,12.30
2018-07-03T05:26:17.995Z,12.34
2018-07-03T05:27:24.416Z,12.37
2018-07-03T05:28:30.854Z,12.41
2018-07-03T05:29:37.296Z,12.46
2018-07-03T05:30:43.740Z,12.56
2018-07-03T05:31:50.166Z,12.66
2018-07-03T05:32:56.613Z,12.94
2018-07-03T05:34:03.090Z,13.03
2018-07-03T05:35:09.512Z,13.02
2018-07-03T05:36:15.965Z,12.98
2018-07-03T05:37:22.407Z,13.03
2018-07-03T05:38:28.856Z,13.13
2018-07-03T05:39:35.308Z,13.14
2018-07-03T05:40:41.757Z,13.15
2018-07-03T05:41:48.197Z,13.42
2018-07-03T05:42:54.657Z,13.77
2018-07-03T05:44:01.108Z,14.14
2018-07-03T05:45:07.555Z,14.43
2018-07-03T05:46:14.028Z,14.73
2018-07-03T05:47:20.482Z,15.09
2018-07-03T05:48:26.928Z,15.25
2018-07-03T05:49:33.396Z,15.47
2018-07-03T05:50:39.857Z,15.64
2018-07-03T05:51:46.309Z,15.81
2018-07-03T05:52:52.761Z,15.95
2018-07-03T05:53:59.218Z,16.06
2018-07-03T05:55:05.678Z,16.14
2018-07-03T05:56:12.174Z,16.24
2018-07-03T05:57:18.604Z,16.31
2018-07-03T05:58:25.055Z,16.43
2018-07-03T05:59:31.509Z,16.54
2018-07-03T06:00:37.966Z,16.58
2018-07-03T06:01:44.436Z,16.64
2018-07-03T06:02:50.884Z,16.69
2018-07-03T06:03:57.406Z,16.77
2018-07-03T06:05:03.806Z,16.82
2018-07-03T06:06:10.287Z,16.89
2018-07-03T06:07:16.734Z,16.97
2018-07-03T06:08:23.191Z,17.02
2018-07-03T06:09:29.708Z,17.07
2018-07-03T06:10:36.126Z,17.10
2018-07-03T06:11:42.592Z,17.14
2018-07-03T06:12:49.085Z,17.22
2018-07-03T06:13:55.526Z,17.30
2018-07-03T06:15:01.977Z,17.42
2018-07-03T06:16:08.466Z,17.47
2018-07-03T06:17:14.924Z,17.56
2018-07-03T06:18:21.382Z,17.62
2018-07-03T06:19:27.858Z,17.66
2018-07-03T06:20:34.315Z,17.70
2018-07-03T06:21:40.806Z,17.79
2018-07-03T06:22:47.306Z,17.84
2018-07-03T06:23:53.729Z,17.86
2018-07-03T06:25:00.208Z,17.93
2018-07-03T06:26:06.676Z,18.00
2018-07-03T06:27:13.476Z,18.04
2018-07-03T06:28:19.639Z,18.05
2018-07-03T06:29:26.116Z,18.06
2018-07-03T06:30:32.607Z,18.09
2018-07-03T06:31:40.081Z,18.12
2018-07-03T06:32:45.577Z,18.16
2018-07-03T06:33:52.052Z,18.20
2018-07-03T06:34:58.549Z,18.23
2018-07-03T06:36:05.040Z,18.26
2018-07-03T06:37:11.537Z,18.29
2018-07-03T06:38:18.025Z,18.31
2018-07-03T06:39:24.519Z,18.32
2018-07-03T06:40:31.011Z,18.34
2018-07-03T06:41:37.514Z,18.40
2018-07-03T06:42:44.021Z,18.47
2018-07-03T06:43:50.511Z,18.54
2018-07-03T06:44:57.082Z,18.56
2018-07-03T06:46:03.533Z,18.59
2018-07-03T06:47:10.049Z,18.63
2018-07-03T06:48:16.559Z,18.64
2018-07-03T06:49:23.063Z,18.68
2018-07-03T06:50:29.580Z,18.77
2018-07-03T06:51:36.105Z,18.82
2018-07-03T06:52:42.635Z,18.84
2018-07-03T06:53:49.130Z,18.78
2018-07-03T06:54:55.671Z,18.80
2018-07-03T06:56:02.179Z,18.82
2018-07-03T06:57:08.737Z,18.92
2018-07-03T06:58:15.237Z,18.97
2018-07-03T06:59:21.758Z,19.05
2018-07-03T07:00:28.288Z,19.10
2018-07-03T07:01:34.905Z,19.11
2018-07-03T07:02:41.370Z,19.02
2018-07-03T07:03:47.904Z,19.01
2018-07-03T07:04:54.438Z,19.05
2018-07-03T07:06:00.970Z,19.12
2018-07-03T07:07:07.535Z,19.21
2018-07-03T07:08:14.066Z,19.24
2018-07-03T07:09:20.699Z,19.26
2018-07-03T07:10:27.156Z,19.32
2018-07-03T07:11:33.698Z,19.36
2018-07-03T07:12:40.257Z,19.43
2018-07-03T07:13:46.901Z,19.47
2018-07-03T07:14:53.361Z,19.49
2018-07-03T07:15:59.901Z,19.60
2018-07-03T07:17:06.458Z,20.08
2018-07-03T07:18:13.023Z,22.16
2018-07-03T07:19:19.580Z,24.29
2018-07-03T07:20:26.140Z,25.60
2018-07-03T07:21:32.699Z,26.92
2018-07-03T07:22:39.260Z,28.65
2018-07-03T07:23:45.829Z,30.97
2018-07-03T07:24:52.387Z,33.17
2018-07-03T07:25:58.958Z,34.51
2018-07-03T07:27:05.523Z,35.76
2018-07-03T07:28:12.104Z,36.27
2018-07-03T07:29:18.732Z,35.15
2018-07-03T07:30:25.246Z,33.22
2018-07-03T07:31:31.817Z,32.43
2018-07-03T07:32:38.890Z,33.58
2018-07-03T07:33:44.970Z,34.93
2018-07-03T07:34:51.553Z,36.69
2018-07-03T07:35:58.131Z,37.81
2018-07-03T07:37:04.699Z,38.21
2018-07-03T07:38:11.286Z,38.78
2018-07-03T07:39:17.877Z,39.42
2018-07-03T07:40:24.443Z,39.89
2018-07-03T07:41:31.032Z,40.57
2018-07-03T07:42:37.657Z,40.67
2018-07-03T07:43:44.222Z,40.16
2018-07-03T07:44:50.897Z,38.88
2018-07-03T07:45:57.404Z,37.28
2018-07-03T07:47:03.995Z,34.39
2018-07-03T07:48:10.592Z,32.26
2018-07-03T07:49:17.201Z,29.89
2018-07-03T07:50:23.796Z,27.94
2018-07-03T07:51:30.391Z,26.36
2018-07-03T07:52:36.992Z,25.20
2018-07-03T07:53:43.586Z,24.34
2018-07-03T07:54:50.251Z,23.77
2018-07-03T07:55:56.887Z,23.36
2018-07-03T07:57:03.407Z,23.03
2018-07-03T07:58:10.026Z,22.80
2018-07-03T07:59:16.624Z,22.58
2018-07-03T08:00:23.300Z,22.49
2018-07-03T08:01:29.848Z,22.46
2018-07-03T08:02:36.474Z,22.42
2018-07-03T08:03:43.276Z,22.41
2018-07-03T08:04:49.711Z,22.39
2018-07-03T08:05:56.334Z,22.37
2018-07-03T08:07:02.939Z,22.35
2018-07-03T08:08:09.573Z,22.36
2018-07-03T08:09:16.193Z,22.31
2018-07-03T08:10:22.822Z,22.25
2018-07-03T08:11:29.439Z,22.26
2018-07-03T08:12:36.065Z,22.23
2018-07-03T08:13:42.706Z,22.22
2018-07-03T08:14:49.337Z,22.16
2018-07-03T08:15:56.170Z,22.14
2018-07-03T08:17:02.610Z,22.16
2018-07-03T08:18:09.266Z,22.14
2018-07-03T08:19:15.940Z,22.10
2018-07-03T08:20:22.534Z,22.07
2018-07-03T08:21:29.158Z,22.07
2018-07-03T08:22:35.800Z,22.04
2018-07-03T08:23:42.457Z,22.04
2018-07-03T08:24:49.099Z,22.11
2018-07-03T08:25:55.755Z,22.18
2018-07-03T08:27:02.402Z,22.22
2018-07-03T08:28:09.049Z,22.24
2018-07-03T08:29:15.698Z,22.24
2018-07-03T08:30:22.372Z,22.24
2018-07-03T08:31:29.017Z,22.25
2018-07-03T08:32:35.667Z,22.31
2018-07-03T08:33:42.325Z,22.35
2018-07-03T08:34:48.993Z,22.36
2018-07-03T08:35:55.674Z,22.40
2018-07-03T08:37:02.318Z,22.51
2018-07-03T08:38:08.979Z,22.64
2018-07-03T08:39:15.658Z,22.67
2018-07-03T08:40:22.310Z,22.66
2018-07-03T08:41:28.986Z,22.64
2018-07-03T08:42:35.645Z,22.64
2018-07-03T08:43:42.313Z,22.67
2018-07-03T08:44:48.984Z,22.69
2018-07-03T08:45:55.666Z,22.64
2018-07-03T08:47:02.339Z,22.61
2018-07-03T08:48:09.004Z,22.61
2018-07-03T08:49:15.689Z,22.67
2018-07-03T08:50:23.356Z,22.70
2018-07-03T08:51:29.038Z,22.72
2018-07-03T08:52:35.702Z,22.76
2018-07-03T08:53:42.392Z,22.77
2018-07-03T08:54:49.064Z,22.76
2018-07-03T08:55:55.755Z,22.76
2018-07-03T08:57:02.436Z,22.77
2018-07-03T08:58:09.162Z,22.78
2018-07-03T08:59:15.799Z,22.84
2018-07-03T09:00:22.490Z,22.97
2018-07-03T09:01:29.186Z,23.13
2018-07-03T09:02:35.866Z,23.24
2018-07-03T09:03:42.580Z,23.33
2018-07-03T09:04:49.240Z,23.39
2018-07-03T09:05:55.939Z,23.43
2018-07-03T09:07:02.634Z,23.37
2018-07-03T09:08:09.318Z,23.31
2018-07-03T09:09:16.017Z,23.33
2018-07-03T09:10:22.721Z,23.37
2018-07-03T09:11:29.444Z,23.41
2018-07-03T09:12:36.122Z,23.51
2018-07-03T09:13:42.827Z,23.57
2018-07-03T09:14:49.515Z,23.57
2018-07-03T09:15:57.221Z,23.51
2018-07-03T09:17:02.949Z,23.61
2018-07-03T09:18:09.754Z,23.67
2018-07-03T09:19:16.335Z,23.69
2018-07-03T09:20:23.057Z,23.67
2018-07-03T09:21:30.060Z,23.64
2018-07-03T09:22:36.471Z,23.60
2018-07-03T09:23:43.195Z,23.58
2018-07-03T09:24:49.883Z,23.53
2018-07-03T09:25:56.606Z,23.42
2018-07-03T09:27:03.307Z,23.32
2018-07-03T09:28:10.035Z,23.29
2018-07-03T09:29:16.741Z,23.32
2018-07-03T09:30:23.480Z,23.36
2018-07-03T09:31:30.177Z,23.42
2018-07-03T09:32:36.890Z,23.53
2018-07-03T09:33:43.587Z,23.68
2018-07-03T09:34:50.301Z,23.82
2018-07-03T09:35:57.016Z,24.00
2018-07-03T09:37:03.734Z,24.07
2018-07-03T09:38:10.464Z,24.09
2018-07-03T09:39:17.160Z,24.11
2018-07-03T09:40:23.874Z,24.18
2018-07-03T09:41:30.599Z,24.22
2018-07-03T09:42:37.322Z,24.29
2018-07-03T09:43:44.028Z,24.24
2018-07-03T09:44:50.753Z,24.19
2018-07-03T09:45:57.478Z,24.15
2018-07-03T09:47:04.197Z,24.07
2018-07-03T09:48:10.916Z,24.12
2018-07-03T09:49:17.638Z,24.25
2018-07-03T09:50:24.355Z,24.22
2018-07-03T09:51:31.081Z,24.29
2018-07-03T09:52:37.797Z,24.46
2018-07-03T09:53:44.511Z,24.60
2018-07-03T09:54:51.293Z,24.69
2018-07-03T09:55:57.959Z,24.68
2018-07-03T09:57:04.685Z,24.63
2018-07-03T09:58:11.407Z,24.63
2018-07-03T09:59:18.131Z,24.60
2018-07-03T10:00:24.850Z,24.48
2018-07-03T10:01:31.581Z,24.35
2018-07-03T10:02:38.309Z,24.40
2018-07-03T10:03:45.016Z,24.55
2018-07-03T10:04:51.744Z,24.65
2018-07-03T10:05:58.472Z,24.82
2018-07-03T10:07:05.205Z,24.94
2018-07-03T10:08:11.940Z,24.95
2018-07-03T10:09:18.665Z,24.87
2018-07-03T10:10:25.402Z,24.91
2018-07-03T10:11:32.128Z,25.00
2018-07-03T10:12:38.862Z,25.01
2018-07-03T10:13:45.592Z,25.03
2018-07-03T10:14:52.326Z,25.11
2018-07-03T10:15:59.064Z,25.24
2018-07-03T10:17:05.793Z,25.30
2018-07-03T10:18:12.541Z,25.40
2018-07-03T10:19:19.275Z,25.47
2018-07-03T10:20:26.011Z,25.45
2018-07-03T10:21:32.749Z,25.42
2018-07-03T10:22:39.505Z,25.40
2018-07-03T10:23:46.252Z,25.26
2018-07-03T10:24:52.980Z,25.05
2018-07-03T10:25:59.725Z,25.02
2018-07-03T10:27:06.477Z,25.04
2018-07-03T10:28:14.227Z,24.95
2018-07-03T10:29:19.970Z,24.89
2018-07-03T10:30:26.720Z,24.82
2018-07-03T10:31:33.458Z,24.71
2018-07-03T10:32:40.207Z,24.73
2018-07-03T10:33:46.965Z,24.83
2018-07-03T10:34:53.705Z,25.01
2018-07-03T10:36:00.450Z,25.17
2018-07-03T10:37:07.202Z,25.46
2018-07-03T10:38:13.948Z,25.57
2018-07-03T10:39:20.720Z,25.63
2018-07-03T10:40:27.457Z,25.68
2018-07-03T10:41:34.221Z,25.82
2018-07-03T10:42:40.974Z,25.83
2018-07-03T10:43:47.752Z,25.59
2018-07-03T10:44:54.481Z,25.46
2018-07-03T10:46:01.243Z,25.50
2018-07-03T10:47:08.010Z,25.53
2018-07-03T10:48:14.757Z,25.54
2018-07-03T10:49:21.516Z,25.52
2018-07-03T10:50:28.262Z,25.50
2018-07-03T10:51:35.024Z,25.49
2018-07-03T10:52:41.779Z,25.59
2018-07-03T10:53:48.555Z,25.59
2018-07-03T10:54:55.331Z,25.60
2018-07-03T10:56:02.071Z,25.60
2018-07-03T10:57:08.836Z,25.56
2018-07-03T10:58:15.601Z,25.70
2018-07-03T10:59:22.368Z,25.84
2018-07-03T11:00:29.131Z,25.94
2018-07-03T11:01:35.897Z,25.95
2018-07-03T11:02:42.676Z,26.01
2018-07-03T11:03:49.429Z,26.02
2018-07-03T11:04:56.219Z,26.02
2018-07-03T11:06:03.020Z,25.93
2018-07-03T11:07:09.844Z,25.91
2018-07-03T11:08:16.708Z,25.95
2018-07-03T11:09:23.686Z,26.07
2018-07-03T11:10:30.756Z,26.24
2018-07-03T11:11:37.889Z,26.31
2018-07-03T11:12:45.285Z,26.34
2018-07-03T11:13:52.403Z,26.33
2018-07-03T11:14:59.747Z,26.33
2018-07-03T11:16:07.151Z,26.31
2018-07-03T11:17:14.614Z,26.27
2018-07-03T11:18:22.150Z,26.30
2018-07-03T11:19:29.716Z,26.40
2018-07-03T11:20:37.305Z,26.42
2018-07-03T11:21:44.952Z,26.36
2018-07-03T11:22:52.636Z,26.26
2018-07-03T11:24:00.338Z,26.19
2018-07-03T11:25:09.096Z,26.10
2018-07-03T11:26:15.869Z,25.88
2018-07-03T11:27:23.691Z,25.70
2018-07-03T11:28:31.519Z,25.68
2018-07-03T11:29:39.400Z,25.84
2018-07-03T11:30:47.280Z,25.94
2018-07-03T11:31:55.205Z,26.15
2018-07-03T11:33:03.154Z,26.42
2018-07-03T11:34:11.117Z,26.64
2018-07-03T11:35:19.106Z,26.64
2018-07-03T11:36:27.098Z,26.72
2018-07-03T11:37:35.122Z,26.78
2018-07-03T11:38:43.148Z,26.72
2018-07-03T11:39:51.208Z,26.66
2018-07-03T11:40:59.284Z,26.85
2018-07-03T11:42:07.369Z,26.91
2018-07-03T11:43:15.525Z,26.86
2018-07-03T11:44:23.579Z,26.78
2018-07-03T11:45:31.707Z,26.68
2018-07-03T11:46:39.857Z,26.66
2018-07-03T11:47:47.976Z,26.79
2018-07-03T11:48:56.118Z,26.95
2018-07-03T11:50:04.296Z,27.09
2018-07-03T11:51:12.455Z,27.19
2018-07-03T11:52:20.622Z,27.08
2018-07-03T11:53:28.910Z,27.08
2018-07-03T11:54:37.009Z,27.16
2018-07-03T11:55:45.236Z,27.08
2018-07-03T11:56:53.457Z,27.09
2018-07-03T11:58:01.681Z,26.87
2018-07-03T11:59:09.909Z,26.63
2018-07-03T12:00:18.148Z,26.57
2018-07-03T12:01:26.442Z,26.60
2018-07-03T12:02:34.610Z,26.61
2018-07-03T12:03:42.855Z,26.63
2018-07-03T12:04:51.109Z,26.72
2018-07-03T12:05:59.384Z,26.86
2018-07-03T12:07:07.664Z,26.95
2018-07-03T12:08:15.961Z,27.03
2018-07-03T12:09:24.262Z,27.13
2018-07-03T12:10:32.588Z,27.49
2018-07-03T12:11:40.918Z,27.54
2018-07-03T12:12:49.258Z,27.57
2018-07-03T12:13:57.607Z,27.63
2018-07-03T12:15:05.948Z,27.80
2018-07-03T12:16:14.313Z,27.71
2018-07-03T12:17:22.699Z,27.80
2018-07-03T12:18:31.076Z,27.85
2018-07-03T12:19:39.542Z,27.76
2018-07-03T12:20:47.842Z,27.78
2018-07-03T12:21:56.240Z,27.71
2018-07-03T12:23:04.635Z,27.81
2018-07-03T12:24:13.045Z,27.86
2018-07-03T12:25:21.460Z,27.97
2018-07-03T12:26:29.894Z,28.00
2018-07-03T12:27:38.323Z,27.96
2018-07-03T12:28:46.772Z,27.95
2018-07-03T12:29:55.198Z,27.81
2018-07-03T12:31:03.634Z,27.63
2018-07-03T12:32:12.080Z,27.59
2018-07-03T12:33:20.502Z,27.61
2018-07-03T12:34:28.938Z,27.82
2018-07-03T12:35:37.373Z,28.18
2018-07-03T12:36:45.896Z,28.43
2018-07-03T12:37:54.237Z,28.75
2018-07-03T12:39:02.662Z,29.11
2018-07-03T12:40:11.107Z,29.50
2018-07-03T12:41:19.521Z,29.70
2018-07-03T12:42:27.955Z,29.51
2018-07-03T12:43:36.367Z,29.18
2018-07-03T12:44:44.785Z,29.10
2018-07-03T12:45:53.201Z,29.10
2018-07-03T12:47:01.617Z,29.22
2018-07-03T12:48:10.056Z,29.34
2018-07-03T12:49:18.454Z,29.36
2018-07-03T12:50:26.877Z,29.28
2018-07-03T12:51:35.289Z,29.18
2018-07-03T12:52:43.705Z,29.24
2018-07-03T12:53:52.135Z,29.26
2018-07-03T12:55:00.556Z,29.06
2018-07-03T12:56:08.975Z,28.85
2018-07-03T12:57:17.387Z,28.71
2018-07-03T12:58:25.796Z,28.52
2018-07-03T12:59:34.198Z,28.47
2018-07-03T13:00:42.593Z,28.46
2018-07-03T13:01:50.982Z,28.44
2018-07-03T13:02:59.371Z,28.58
2018-07-03T13:04:07.764Z,28.73
2018-07-03T13:05:16.127Z,28.76
2018-07-03T13:06:24.501Z,29.10
2018-07-03T13:07:32.867Z,29.27
2018-07-03T13:08:41.249Z,29.46
2018-07-03T13:09:50.588Z,29.42
2018-07-03T13:10:57.940Z,29.47
2018-07-03T13:12:06.288Z,29.63
2018-07-03T13:13:14.636Z,29.76
2018-07-03T13:14:22.988Z,29.89
2018-07-03T13:15:31.321Z,29.81
2018-07-03T13:16:39.650Z,29.85
2018-07-03T13:17:47.983Z,29.87
2018-07-03T13:18:56.330Z,29.95
2018-07-03T13:20:04.645Z,29.76
2018-07-03T13:21:13.016Z,29.82
2018-07-03T13:22:21.314Z,29.97
2018-07-03T13:23:29.635Z,30.02
2018-07-03T13:24:37.949Z,30.07
2018-07-03T13:25:46.258Z,30.25
2018-07-03T13:26:54.576Z,30.29
2018-07-03T13:28:02.901Z,30.13
2018-07-03T13:29:11.219Z,30.19
2018-07-03T13:30:19.530Z,29.99
2018-07-03T13:31:27.863Z,29.71
2018-07-03T13:32:36.152Z,29.60
2018-07-03T13:33:44.451Z,29.65
2018-07-03T13:34:52.744Z,29.78
2018-07-03T13:36:01.030Z,29.96
2018-07-03T13:37:09.327Z,30.14
2018-07-03T13:38:17.607Z,30.42
2018-07-03T13:39:25.894Z,30.58
2018-07-03T13:40:34.166Z,30.72
2018-07-03T13:41:42.462Z,30.90
2018-07-03T13:42:50.748Z,31.03
2018-07-03T13:43:59.035Z,31.18
2018-07-03T13:45:07.323Z,31.15
2018-07-03T13:46:15.588Z,31.16
2018-07-03T13:47:23.857Z,31.33
2018-07-03T13:48:32.127Z,31.39
2018-07-03T13:49:40.394Z,31.40
2018-07-03T13:50:48.649Z,31.07
2018-07-03T13:51:56.909Z,30.73
2018-07-03T13:53:05.169Z,30.80
2018-07-03T13:54:13.440Z,30.78
2018-07-03T13:55:21.709Z,30.85
2018-07-03T13:56:29.975Z,30.93
2018-07-03T13:57:39.252Z,31.04
2018-07-03T13:58:46.536Z,31.09
2018-07-03T13:59:54.906Z,31.06
2018-07-03T14:01:03.132Z,31.00
2018-07-03T14:02:11.435Z,31.01
2018-07-03T14:03:19.736Z,30.83
2018-07-03T14:04:28.049Z,30.78
2018-07-03T14:05:36.369Z,30.93
2018-07-03T14:06:44.686Z,30.86
2018-07-03T14:07:53.007Z,30.85
2018-07-03T14:09:01.321Z,30.92
2018-07-03T14:10:09.650Z,31.05
2018-07-03T14:11:17.991Z,31.16
2018-07-03T14:12:26.295Z,31.06
2018-07-03T14:13:34.618Z,30.96
2018-07-03T14:14:42.928Z,30.74
2018-07-03T14:15:51.246Z,30.54
2018-07-03T14:16:59.558Z,30.43
2018-07-03T14:18:07.869Z,30.31
2018-07-03T14:19:16.164Z,29.91
2018-07-03T14:20:24.442Z,29.95
2018-07-03T14:21:32.731Z,30.39
2018-07-03T14:22:40.989Z,30.94
2018-07-03T14:23:49.227Z,31.36
2018-07-03T14:24:57.471Z,31.50
2018-07-03T14:26:05.733Z,31.37